PWSweather.com
Personal Weather Stations
Station Observations
NEWFAL01
Newton Falls, OH 44444

Newton Falls, OH 44444

Lat: 41.19902, Lon: -80.97668

Elevation: 920

Station Type: Vantage Pro 2

http://www.mvweathercenter.com

Latest ConditionsUpdated 8:10:01 PM EDT Wednesday, Apr 25, 2018
Currently Today's Max Today's Min Today's Average
Temperature 45.0°F7.2°C 54.1°F12.3°C 45.0°F7.2°C 50.2°F10.1°C
Dew Point 38.9°F3.8°C 50.9°F10.5°C 38.9°F3.8°C 46.5°F8.1°C
Winds 4.6 mph N7.4 kmh N 9.2 mph N14.8 kmh N - 1.4 mph 2.3 kmh
Wind Gusts 5.8 mph9.3 kmh 15.0 mph24.1 kmh - -
Humidity 79% 91% 77% 87%
Pressure 29.92 in1013.2 mb 29.92 in1013.2 mb 29.82 in1009.8 mb -
Precipitation - 0.08 in2.0 mm - -
Hour Temp Dew Point Humidity Winds Wind Gusts Pressure Precip Precip Rate Daily Precip Total
08:10 PM 45.0°F7.2°C 38.9°F3.8°C 79% 4.6 mph N7.4 kmh N 5.8 mph9.3 kmh 29.92 in1013.2 mb - 0.00 in0.0 mm 0.08 in2.0 mm
08:00 PM 45.2°F7.3°C 39.1°F3.9°C 79% 3.5 mph N5.6 kmh N 5.8 mph9.3 kmh 29.91 in1012.9 mb - 0.00 in0.0 mm 0.08 in2.0 mm
07:55 PM 45.4°F7.4°C 39.3°F4.1°C 79% 1.2 mph N1.9 kmh N 1.2 mph1.9 kmh 29.91 in1012.9 mb - 0.00 in0.0 mm 0.08 in2.0 mm
07:50 PM 45.5°F7.5°C 39.3°F4.1°C 79% 2.3 mph N3.7 kmh N 4.6 mph7.4 kmh 29.91 in1012.9 mb - 0.00 in0.0 mm 0.08 in2.0 mm
07:45 PM 45.5°F7.5°C 39.4°F4.1°C 79% 2.3 mph N3.7 kmh N 1.2 mph1.9 kmh 29.91 in1012.9 mb - 0.00 in0.0 mm 0.08 in2.0 mm
07:40 PM 45.6°F7.6°C 39.2°F4.0°C 78% 2.3 mph N3.7 kmh N 5.8 mph9.3 kmh 29.91 in1012.9 mb - 0.00 in0.0 mm 0.08 in2.0 mm
07:35 PM 45.8°F7.7°C 39.7°F4.3°C 79% 2.3 mph N3.7 kmh N 5.8 mph9.3 kmh 29.91 in1012.9 mb - 0.00 in0.0 mm 0.08 in2.0 mm
07:30 PM 45.8°F7.7°C 39.7°F4.3°C 79% Calm Calm -- 29.91 in1012.9 mb - 0.00 in0.0 mm 0.08 in2.0 mm
07:25 PM 45.8°F7.7°C 39.3°F4.1°C 78% 1.2 mph N1.9 kmh N -- 29.91 in1012.9 mb - 0.00 in0.0 mm 0.08 in2.0 mm
07:20 PM 45.8°F7.7°C 39.3°F4.1°C 78% 5.8 mph N9.3 kmh N 3.5 mph5.6 kmh 29.91 in1012.9 mb - 0.00 in0.0 mm 0.08 in2.0 mm
07:15 PM 46.0°F7.8°C 39.2°F4.0°C 77% 6.9 mph N11.1 kmh N 5.8 mph9.3 kmh 29.91 in1012.9 mb - 0.00 in0.0 mm 0.08 in2.0 mm
07:10 PM 46.2°F7.9°C 39.4°F4.1°C 77% 2.3 mph N3.7 kmh N 3.5 mph5.6 kmh 29.91 in1012.9 mb - 0.00 in0.0 mm 0.08 in2.0 mm
07:00 PM 46.6°F8.1°C 39.8°F4.3°C 77% 2.3 mph N3.7 kmh N 8.1 mph13.0 kmh 29.90 in1012.5 mb - 0.00 in0.0 mm 0.08 in2.0 mm
06:55 PM 46.8°F8.2°C 39.9°F4.4°C 77% 5.8 mph N9.3 kmh N 8.1 mph13.0 kmh 29.90 in1012.5 mb - 0.00 in0.0 mm 0.08 in2.0 mm
06:50 PM 46.9°F8.3°C 40.4°F4.7°C 78% 6.9 mph N11.1 kmh N 9.2 mph14.8 kmh 29.90 in1012.5 mb - 0.00 in0.0 mm 0.08 in2.0 mm
06:45 PM 47.0°F8.3°C 40.8°F4.9°C 79% 5.8 mph N9.3 kmh N 10.4 mph16.7 kmh 29.90 in1012.5 mb - 0.00 in0.0 mm 0.08 in2.0 mm
06:40 PM 47.0°F8.3°C 40.8°F4.9°C 79% 5.8 mph NNE9.3 kmh NNE 5.8 mph9.3 kmh 29.90 in1012.5 mb - 0.00 in0.0 mm 0.08 in2.0 mm
06:35 PM 46.9°F8.3°C 40.7°F4.8°C 79% 5.8 mph N9.3 kmh N 8.1 mph13.0 kmh 29.90 in1012.5 mb - 0.00 in0.0 mm 0.08 in2.0 mm
06:30 PM 46.9°F8.3°C 40.7°F4.8°C 79% 4.6 mph NNE7.4 kmh NNE 5.8 mph9.3 kmh 29.90 in1012.5 mb - 0.00 in0.0 mm 0.08 in2.0 mm
06:25 PM 46.9°F8.3°C 41.1°F5.1°C 80% 5.8 mph N9.3 kmh N 8.1 mph13.0 kmh 29.90 in1012.5 mb - 0.00 in0.0 mm 0.08 in2.0 mm
06:20 PM 46.8°F8.2°C 41.0°F5.0°C 80% Calm Calm 4.6 mph7.4 kmh 29.90 in1012.5 mb - 0.00 in0.0 mm 0.08 in2.0 mm
06:15 PM 46.8°F8.2°C 41.0°F5.0°C 80% 6.9 mph N11.1 kmh N 5.8 mph9.3 kmh 29.90 in1012.5 mb - 0.00 in0.0 mm 0.08 in2.0 mm
06:10 PM 46.8°F8.2°C 41.0°F5.0°C 80% 3.5 mph N5.6 kmh N 5.8 mph9.3 kmh 29.90 in1012.5 mb - 0.00 in0.0 mm 0.08 in2.0 mm
06:00 PM 46.7°F8.2°C 40.9°F4.9°C 80% 5.8 mph NNE9.3 kmh NNE 8.1 mph13.0 kmh 29.90 in1012.5 mb - 0.00 in0.0 mm 0.08 in2.0 mm
05:55 PM 46.8°F8.2°C 41.0°F5.0°C 80% 5.8 mph N9.3 kmh N 15.0 mph24.1 kmh 29.90 in1012.5 mb - 0.00 in0.0 mm 0.08 in2.0 mm
05:50 PM 46.8°F8.2°C 41.0°F5.0°C 80% 5.8 mph N9.3 kmh N 10.4 mph16.7 kmh 29.90 in1012.5 mb - 0.00 in0.0 mm 0.08 in2.0 mm
05:45 PM 46.9°F8.3°C 41.1°F5.1°C 80% 8.1 mph N13.0 kmh N 8.1 mph13.0 kmh 29.89 in1012.2 mb - 0.00 in0.0 mm 0.08 in2.0 mm
05:40 PM 47.1°F8.4°C 41.2°F5.1°C 80% 6.9 mph N11.1 kmh N 9.2 mph14.8 kmh 29.89 in1012.2 mb - 0.00 in0.0 mm 0.08 in2.0 mm
05:35 PM 47.2°F8.4°C 41.3°F5.2°C 80% 8.1 mph N13.0 kmh N 9.2 mph14.8 kmh 29.89 in1012.2 mb - 0.00 in0.0 mm 0.08 in2.0 mm
05:30 PM 47.4°F8.6°C 41.9°F5.5°C 81% 3.5 mph N5.6 kmh N 8.1 mph13.0 kmh 29.89 in1012.2 mb - 0.00 in0.0 mm 0.08 in2.0 mm
05:25 PM 47.4°F8.6°C 41.9°F5.5°C 81% 5.8 mph N9.3 kmh N 5.8 mph9.3 kmh 29.89 in1012.2 mb - 0.00 in0.0 mm 0.08 in2.0 mm
05:20 PM 47.4°F8.6°C 41.9°F5.5°C 81% 5.8 mph N9.3 kmh N 8.1 mph13.0 kmh 29.89 in1012.2 mb - 0.00 in0.0 mm 0.08 in2.0 mm
05:15 PM 47.4°F8.6°C 42.2°F5.7°C 82% Calm Calm -- 29.89 in1012.2 mb - 0.00 in0.0 mm 0.08 in2.0 mm
05:10 PM 47.5°F8.6°C 42.0°F5.6°C 81% 8.1 mph N13.0 kmh N 10.4 mph16.7 kmh 29.88 in1011.9 mb - 0.00 in0.0 mm 0.08 in2.0 mm
05:00 PM 47.7°F8.7°C 42.5°F5.8°C 82% 3.5 mph N5.6 kmh N 8.1 mph13.0 kmh 29.88 in1011.9 mb - 0.00 in0.0 mm 0.08 in2.0 mm
04:55 PM 47.8°F8.8°C 42.6°F5.9°C 82% 5.8 mph N9.3 kmh N 4.6 mph7.4 kmh 29.88 in1011.9 mb - 0.00 in0.0 mm 0.08 in2.0 mm
04:50 PM 48.0°F8.9°C 42.8°F6.0°C 82% 9.2 mph N14.8 kmh N 8.1 mph13.0 kmh 29.88 in1011.9 mb - 0.00 in0.0 mm 0.08 in2.0 mm
04:45 PM 48.1°F8.9°C 42.9°F6.1°C 82% 2.3 mph N3.7 kmh N 3.5 mph5.6 kmh 29.88 in1011.9 mb - 0.00 in0.0 mm 0.08 in2.0 mm
04:40 PM 48.2°F9.0°C 43.0°F6.1°C 82% 3.5 mph N5.6 kmh N 8.1 mph13.0 kmh 29.88 in1011.9 mb - 0.00 in0.0 mm 0.08 in2.0 mm
04:35 PM 48.2°F9.0°C 43.3°F6.3°C 83% 6.9 mph N11.1 kmh N 11.5 mph18.5 kmh 29.88 in1011.9 mb - 0.00 in0.0 mm 0.08 in2.0 mm
04:30 PM 48.0°F8.9°C 43.1°F6.2°C 83% 1.2 mph N1.9 kmh N 3.5 mph5.6 kmh 29.88 in1011.9 mb - 0.00 in0.0 mm 0.08 in2.0 mm
04:25 PM 48.1°F8.9°C 42.9°F6.1°C 82% 4.6 mph 7.4 kmh 5.8 mph9.3 kmh 29.88 in1011.9 mb - 0.00 in0.0 mm 0.08 in2.0 mm
04:20 PM 48.3°F9.1°C 43.1°F6.2°C 82% 3.5 mph N5.6 kmh N 5.8 mph9.3 kmh 29.87 in1011.5 mb - 0.00 in0.0 mm 0.08 in2.0 mm
04:15 PM 48.5°F9.2°C 43.6°F6.4°C 83% 4.6 mph N7.4 kmh N 5.8 mph9.3 kmh 29.87 in1011.5 mb - 0.00 in0.0 mm 0.08 in2.0 mm
04:10 PM 48.6°F9.2°C 43.7°F6.5°C 83% 1.2 mph N1.9 kmh N 3.5 mph5.6 kmh 29.87 in1011.5 mb - 0.00 in0.0 mm 0.08 in2.0 mm
04:00 PM 48.8°F9.3°C 43.9°F6.6°C 83% 2.3 mph N3.7 kmh N 5.8 mph9.3 kmh 29.87 in1011.5 mb - 0.00 in0.0 mm 0.08 in2.0 mm
03:55 PM 49.1°F9.5°C 44.2°F6.8°C 83% 2.3 mph N3.7 kmh N 5.8 mph9.3 kmh 29.86 in1011.2 mb - 0.00 in0.0 mm 0.08 in2.0 mm
03:50 PM 49.4°F9.7°C 44.5°F6.9°C 83% 4.6 mph N7.4 kmh N 5.8 mph9.3 kmh 29.86 in1011.2 mb - 0.00 in0.0 mm 0.08 in2.0 mm
03:45 PM 49.7°F9.8°C 44.7°F7.1°C 83% 1.2 mph N1.9 kmh N 10.4 mph16.7 kmh 29.86 in1011.2 mb - 0.00 in0.0 mm 0.08 in2.0 mm
03:40 PM 50.2°F10.1°C 45.3°F7.4°C 83% 4.6 mph N7.4 kmh N 5.8 mph9.3 kmh 29.86 in1011.2 mb - 0.00 in0.0 mm 0.08 in2.0 mm
03:35 PM 50.6°F10.3°C 45.6°F7.6°C 83% 5.8 mph 9.3 kmh 5.8 mph9.3 kmh 29.86 in1011.2 mb - 0.00 in0.0 mm 0.08 in2.0 mm
03:30 PM 50.9°F10.5°C 46.2°F7.9°C 84% 3.5 mph N5.6 kmh N 4.6 mph7.4 kmh 29.85 in1010.8 mb - 0.00 in0.0 mm 0.08 in2.0 mm
03:25 PM 51.0°F10.6°C 46.3°F7.9°C 84% 6.9 mph N11.1 kmh N 9.2 mph14.8 kmh 29.85 in1010.8 mb - 0.00 in0.0 mm 0.08 in2.0 mm
03:20 PM 51.1°F10.6°C 46.4°F8.0°C 84% 3.5 mph 5.6 kmh 5.8 mph9.3 kmh 29.85 in1010.8 mb - 0.00 in0.0 mm 0.08 in2.0 mm
03:15 PM 51.3°F10.7°C 46.6°F8.1°C 84% 5.8 mph N9.3 kmh N 5.8 mph9.3 kmh 29.84 in1010.5 mb - 0.00 in0.0 mm 0.08 in2.0 mm
03:10 PM 51.5°F10.8°C 47.1°F8.4°C 85% 5.8 mph N9.3 kmh N 5.8 mph9.3 kmh 29.84 in1010.5 mb - 0.00 in0.0 mm 0.08 in2.0 mm
03:00 PM 51.6°F10.9°C 47.5°F8.6°C 86% 2.3 mph N3.7 kmh N 5.8 mph9.3 kmh 29.84 in1010.5 mb - 0.00 in0.0 mm 0.08 in2.0 mm
02:55 PM 51.6°F10.9°C 47.5°F8.6°C 86% 2.3 mph N3.7 kmh N 3.5 mph5.6 kmh 29.84 in1010.5 mb - 0.00 in0.0 mm 0.08 in2.0 mm
02:50 PM 51.5°F10.8°C 47.5°F8.6°C 86% Calm Calm 4.6 mph7.4 kmh 29.84 in1010.5 mb - 0.00 in0.0 mm 0.08 in2.0 mm
02:45 PM 51.6°F10.9°C 47.5°F8.6°C 86% 5.8 mph N9.3 kmh N 8.1 mph13.0 kmh 29.84 in1010.5 mb - 0.00 in0.0 mm 0.08 in2.0 mm
02:40 PM 51.7°F10.9°C 48.0°F8.9°C 87% 4.6 mph N7.4 kmh N 4.6 mph7.4 kmh 29.84 in1010.5 mb - 0.00 in0.0 mm 0.08 in2.0 mm
02:35 PM 51.8°F11.0°C 48.0°F8.9°C 87% 1.2 mph NNE1.9 kmh NNE 1.2 mph1.9 kmh 29.84 in1010.5 mb - 0.00 in0.0 mm 0.08 in2.0 mm
02:30 PM 51.9°F11.1°C 48.1°F8.9°C 87% 5.8 mph 9.3 kmh 8.1 mph13.0 kmh 29.83 in1010.2 mb - 0.00 in0.0 mm 0.08 in2.0 mm
02:25 PM 51.9°F11.1°C 48.5°F9.2°C 88% Calm Calm 3.5 mph5.6 kmh 29.83 in1010.2 mb - 0.00 in0.0 mm 0.08 in2.0 mm
02:20 PM 52.0°F11.1°C 48.6°F9.2°C 88% 1.2 mph N1.9 kmh N 4.6 mph7.4 kmh 29.84 in1010.5 mb - 0.00 in0.0 mm 0.08 in2.0 mm
02:15 PM 52.1°F11.2°C 48.7°F9.3°C 88% 1.2 mph N1.9 kmh N 1.2 mph1.9 kmh 29.83 in1010.2 mb - 0.00 in0.0 mm 0.08 in2.0 mm
02:10 PM 52.1°F11.2°C 48.7°F9.3°C 88% Calm Calm 1.2 mph1.9 kmh 29.83 in1010.2 mb - 0.00 in0.0 mm 0.08 in2.0 mm
02:00 PM 52.3°F11.3°C 48.9°F9.4°C 88% 1.2 mph N1.9 kmh N 4.6 mph7.4 kmh 29.84 in1010.5 mb - 0.00 in0.0 mm 0.08 in2.0 mm
01:55 PM 52.5°F11.4°C 49.1°F9.5°C 88% 2.3 mph 3.7 kmh 5.8 mph9.3 kmh 29.83 in1010.2 mb - 0.00 in0.0 mm 0.08 in2.0 mm
01:50 PM 52.6°F11.4°C 49.5°F9.7°C 89% 2.3 mph N3.7 kmh N 1.2 mph1.9 kmh 29.84 in1010.5 mb - 0.00 in0.0 mm 0.08 in2.0 mm
01:45 PM 52.6°F11.4°C 49.4°F9.7°C 89% Calm Calm 3.5 mph5.6 kmh 29.83 in1010.2 mb - 0.01 in0.3 mm 0.08 in2.0 mm
01:40 PM 52.6°F11.4°C 49.5°F9.7°C 89% 1.2 mph N1.9 kmh N 5.8 mph9.3 kmh 29.84 in1010.5 mb - 0.01 in0.3 mm 0.08 in2.0 mm
01:35 PM 52.7°F11.5°C 49.3°F9.6°C 88% Calm Calm 1.2 mph1.9 kmh 29.83 in1010.2 mb - 0.00 in0.0 mm 0.07 in1.8 mm
01:30 PM 53.0°F11.7°C 49.8°F9.9°C 89% 1.2 mph N1.9 kmh N 5.8 mph9.3 kmh 29.83 in1010.2 mb - 0.00 in0.0 mm 0.07 in1.8 mm
01:25 PM 52.9°F11.6°C 49.4°F9.7°C 88% Calm Calm -- 29.83 in1010.2 mb - 0.00 in0.0 mm 0.07 in1.8 mm
01:20 PM 53.1°F11.7°C 49.9°F9.9°C 89% 1.2 mph N1.9 kmh N 5.8 mph9.3 kmh 29.84 in1010.5 mb - 0.00 in0.0 mm 0.07 in1.8 mm
01:15 PM 53.1°F11.7°C 49.7°F9.8°C 88% 1.2 mph N1.9 kmh N 4.6 mph7.4 kmh 29.83 in1010.2 mb - 0.00 in0.0 mm 0.07 in1.8 mm
01:10 PM 53.3°F11.8°C 49.9°F9.9°C 88% Calm Calm -- 29.83 in1010.2 mb - 0.01 in0.3 mm 0.07 in1.8 mm
01:00 PM 53.8°F12.1°C 50.6°F10.3°C 89% 2.3 mph 3.7 kmh 5.8 mph9.3 kmh 29.83 in1010.2 mb - 0.00 in0.0 mm 0.06 in1.5 mm
12:55 PM 53.7°F12.1°C 50.6°F10.3°C 89% Calm Calm -- 29.83 in1010.2 mb - 0.00 in0.0 mm 0.06 in1.5 mm
12:50 PM 53.8°F12.1°C 50.6°F10.3°C 89% Calm Calm -- 29.83 in1010.2 mb - 0.00 in0.0 mm 0.06 in1.5 mm
12:45 PM 53.8°F12.1°C 50.3°F10.2°C 88% Calm Calm 3.5 mph5.6 kmh 29.82 in1009.8 mb - 0.01 in0.3 mm 0.06 in1.5 mm
12:40 PM 53.9°F12.2°C 50.7°F10.4°C 89% Calm Calm 3.5 mph5.6 kmh 29.82 in1009.8 mb - 0.00 in0.0 mm 0.05 in1.3 mm
12:35 PM 54.0°F12.2°C 50.8°F10.4°C 89% 2.3 mph N3.7 kmh N 4.6 mph7.4 kmh 29.83 in1010.2 mb - 0.00 in0.0 mm 0.05 in1.3 mm
12:30 PM 54.0°F12.2°C 50.8°F10.4°C 89% 1.2 mph N1.9 kmh N 3.5 mph5.6 kmh 29.83 in1010.2 mb - 0.00 in0.0 mm 0.05 in1.3 mm
12:25 PM 53.9°F12.2°C 50.7°F10.4°C 89% Calm Calm 1.2 mph1.9 kmh 29.83 in1010.2 mb - 0.00 in0.0 mm 0.05 in1.3 mm
12:20 PM 53.9°F12.2°C 50.4°F10.2°C 88% Calm Calm -- 29.83 in1010.2 mb - 0.00 in0.0 mm 0.05 in1.3 mm
12:15 PM 54.0°F12.2°C 50.5°F10.3°C 88% 2.3 mph N3.7 kmh N 4.6 mph7.4 kmh 29.83 in1010.2 mb - 0.00 in0.0 mm 0.05 in1.3 mm
12:10 PM 54.1°F12.3°C 50.9°F10.5°C 89% 2.3 mph N3.7 kmh N 4.6 mph7.4 kmh 29.84 in1010.5 mb - 0.00 in0.0 mm 0.05 in1.3 mm
12:00 PM 54.0°F12.2°C 50.8°F10.4°C 89% Calm Calm 1.2 mph1.9 kmh 29.84 in1010.5 mb - 0.00 in0.0 mm 0.05 in1.3 mm
11:55 AM 53.9°F12.2°C 50.7°F10.4°C 89% Calm Calm -- 29.84 in1010.5 mb - 0.00 in0.0 mm 0.05 in1.3 mm
11:50 AM 53.8°F12.1°C 50.7°F10.4°C 89% 1.2 mph N1.9 kmh N 3.5 mph5.6 kmh 29.84 in1010.5 mb - 0.00 in0.0 mm 0.05 in1.3 mm
11:45 AM 53.8°F12.1°C 50.6°F10.3°C 89% 1.2 mph N1.9 kmh N 4.6 mph7.4 kmh 29.84 in1010.5 mb - 0.00 in0.0 mm 0.05 in1.3 mm
11:40 AM 53.8°F12.1°C 50.6°F10.3°C 89% Calm Calm -- 29.84 in1010.5 mb - 0.00 in0.0 mm 0.05 in1.3 mm
11:35 AM 53.7°F12.1°C 50.8°F10.4°C 90% Calm Calm -- 29.84 in1010.5 mb - 0.00 in0.0 mm 0.05 in1.3 mm
11:30 AM 53.7°F12.1°C 50.8°F10.4°C 90% Calm Calm -- 29.84 in1010.5 mb - 0.00 in0.0 mm 0.05 in1.3 mm
11:25 AM 53.6°F12.0°C 50.7°F10.4°C 90% 1.2 mph N1.9 kmh N 3.5 mph5.6 kmh 29.84 in1010.5 mb - 0.00 in0.0 mm 0.05 in1.3 mm
11:20 AM 53.3°F11.8°C 50.5°F10.3°C 90% Calm Calm -- 29.84 in1010.5 mb - 0.00 in0.0 mm 0.05 in1.3 mm
11:15 AM 53.3°F11.8°C 50.4°F10.2°C 90% Calm Calm -- 29.84 in1010.5 mb - 0.00 in0.0 mm 0.05 in1.3 mm
11:10 AM 53.2°F11.8°C 50.3°F10.2°C 90% Calm Calm 1.2 mph1.9 kmh 29.84 in1010.5 mb - 0.00 in0.0 mm 0.05 in1.3 mm
11:00 AM 52.9°F11.6°C 50.0°F10.0°C 90% Calm Calm -- 29.84 in1010.5 mb - 0.00 in0.0 mm 0.05 in1.3 mm
10:55 AM 52.8°F11.6°C 49.9°F9.9°C 90% Calm Calm -- 29.84 in1010.5 mb - 0.00 in0.0 mm 0.05 in1.3 mm
10:50 AM 52.7°F11.5°C 49.8°F9.9°C 90% Calm Calm -- 29.84 in1010.5 mb - 0.00 in0.0 mm 0.05 in1.3 mm
10:45 AM 52.6°F11.4°C 49.8°F9.9°C 90% Calm Calm 3.5 mph5.6 kmh 29.84 in1010.5 mb - 0.00 in0.0 mm 0.05 in1.3 mm
10:40 AM 52.4°F11.3°C 49.6°F9.8°C 90% Calm Calm -- 29.84 in1010.5 mb - 0.00 in0.0 mm 0.05 in1.3 mm
10:35 AM 52.6°F11.4°C 50.0°F10.0°C 91% 1.2 mph N1.9 kmh N 3.5 mph5.6 kmh 29.84 in1010.5 mb - 0.00 in0.0 mm 0.05 in1.3 mm
10:30 AM 52.5°F11.4°C 50.0°F10.0°C 91% Calm Calm -- 29.83 in1010.2 mb - 0.00 in0.0 mm 0.05 in1.3 mm
10:25 AM 52.4°F11.3°C 49.6°F9.8°C 90% Calm Calm -- 29.84 in1010.5 mb - 0.00 in0.0 mm 0.05 in1.3 mm
10:20 AM 52.3°F11.3°C 49.5°F9.7°C 90% 3.5 mph N5.6 kmh N 4.6 mph7.4 kmh 29.84 in1010.5 mb - 0.00 in0.0 mm 0.05 in1.3 mm
10:15 AM 52.1°F11.2°C 49.5°F9.7°C 91% Calm Calm -- 29.84 in1010.5 mb - 0.00 in0.0 mm 0.05 in1.3 mm
10:10 AM 51.9°F11.1°C 49.4°F9.7°C 91% Calm Calm -- 29.84 in1010.5 mb - 0.00 in0.0 mm 0.05 in1.3 mm
10:00 AM 51.5°F10.8°C 48.7°F9.3°C 90% Calm Calm -- 29.84 in1010.5 mb - 0.00 in0.0 mm 0.05 in1.3 mm
09:55 AM 51.5°F10.8°C 48.7°F9.3°C 90% Calm Calm -- 29.83 in1010.2 mb - 0.00 in0.0 mm 0.05 in1.3 mm
09:50 AM 51.4°F10.8°C 48.6°F9.2°C 90% Calm Calm -- 29.83 in1010.2 mb - 0.00 in0.0 mm 0.05 in1.3 mm
09:45 AM 51.4°F10.8°C 48.6°F9.2°C 90% Calm Calm -- 29.83 in1010.2 mb - 0.00 in0.0 mm 0.05 in1.3 mm
09:40 AM 51.4°F10.8°C 48.6°F9.2°C 90% Calm Calm -- 29.83 in1010.2 mb - 0.00 in0.0 mm 0.05 in1.3 mm
09:35 AM 51.4°F10.8°C 48.6°F9.2°C 90% Calm Calm -- 29.83 in1010.2 mb - 0.00 in0.0 mm 0.05 in1.3 mm
09:30 AM 51.4°F10.8°C 48.8°F9.3°C 91% Calm Calm -- 29.83 in1010.2 mb - 0.00 in0.0 mm 0.05 in1.3 mm
09:25 AM 51.1°F10.6°C 48.3°F9.1°C 90% Calm Calm -- 29.83 in1010.2 mb - 0.00 in0.0 mm 0.05 in1.3 mm
09:20 AM 51.0°F10.6°C 48.2°F9.0°C 90% Calm Calm -- 29.83 in1010.2 mb - 0.00 in0.0 mm 0.05 in1.3 mm
09:15 AM 50.9°F10.5°C 48.1°F8.9°C 90% Calm Calm -- 29.83 in1010.2 mb - 0.00 in0.0 mm 0.05 in1.3 mm
09:10 AM 51.0°F10.6°C 48.2°F9.0°C 90% Calm Calm -- 29.84 in1010.5 mb - 0.00 in0.0 mm 0.05 in1.3 mm
09:00 AM 51.0°F10.6°C 48.2°F9.0°C 90% Calm Calm -- 29.84 in1010.5 mb - 0.00 in0.0 mm 0.05 in1.3 mm
08:55 AM 50.9°F10.5°C 48.0°F8.9°C 90% Calm Calm -- 29.84 in1010.5 mb - 0.00 in0.0 mm 0.05 in1.3 mm
08:50 AM 50.6°F10.3°C 47.8°F8.8°C 90% Calm Calm -- 29.84 in1010.5 mb - 0.00 in0.0 mm 0.05 in1.3 mm
08:45 AM 50.5°F10.3°C 47.7°F8.7°C 90% Calm Calm -- 29.84 in1010.5 mb - 0.00 in0.0 mm 0.05 in1.3 mm
08:40 AM 50.5°F10.3°C 47.7°F8.7°C 90% Calm Calm -- 29.84 in1010.5 mb - 0.00 in0.0 mm 0.05 in1.3 mm
08:35 AM 50.5°F10.3°C 47.7°F8.7°C 90% Calm Calm -- 29.84 in1010.5 mb - 0.00 in0.0 mm 0.05 in1.3 mm
08:30 AM 50.4°F10.2°C 47.6°F8.7°C 90% Calm Calm -- 29.84 in1010.5 mb - 0.00 in0.0 mm 0.05 in1.3 mm
08:25 AM 50.3°F10.2°C 47.5°F8.6°C 90% Calm Calm -- 29.84 in1010.5 mb - 0.00 in0.0 mm 0.05 in1.3 mm
08:20 AM 50.3°F10.2°C 47.4°F8.6°C 90% Calm Calm -- 29.84 in1010.5 mb - 0.00 in0.0 mm 0.05 in1.3 mm
08:15 AM 50.2°F10.1°C 47.4°F8.6°C 90% Calm Calm -- 29.84 in1010.5 mb - 0.00 in0.0 mm 0.05 in1.3 mm
08:10 AM 50.1°F10.1°C 47.3°F8.5°C 90% Calm Calm -- 29.84 in1010.5 mb - 0.00 in0.0 mm 0.05 in1.3 mm
08:00 AM 50.1°F10.1°C 47.3°F8.5°C 90% Calm Calm -- 29.84 in1010.5 mb - 0.00 in0.0 mm 0.05 in1.3 mm
07:55 AM 50.1°F10.1°C 47.3°F8.5°C 90% Calm Calm -- 29.84 in1010.5 mb - 0.00 in0.0 mm 0.05 in1.3 mm
07:50 AM 50.0°F10.0°C 47.2°F8.4°C 90% Calm Calm -- 29.84 in1010.5 mb - 0.00 in0.0 mm 0.05 in1.3 mm
07:45 AM 49.9°F9.9°C 47.1°F8.4°C 90% Calm Calm -- 29.84 in1010.5 mb - 0.00 in0.0 mm 0.05 in1.3 mm
07:40 AM 49.9°F9.9°C 47.1°F8.4°C 90% Calm Calm -- 29.84 in1010.5 mb - 0.00 in0.0 mm 0.05 in1.3 mm
07:35 AM 49.9°F9.9°C 47.1°F8.4°C 90% Calm Calm -- 29.84 in1010.5 mb - 0.00 in0.0 mm 0.05 in1.3 mm
07:30 AM 49.9°F9.9°C 47.1°F8.4°C 90% Calm Calm -- 29.84 in1010.5 mb - 0.00 in0.0 mm 0.05 in1.3 mm
07:25 AM 49.8°F9.9°C 47.0°F8.3°C 90% Calm Calm -- 29.84 in1010.5 mb - 0.00 in0.0 mm 0.05 in1.3 mm
07:20 AM 49.8°F9.9°C 47.0°F8.3°C 90% Calm Calm -- 29.84 in1010.5 mb - 0.00 in0.0 mm 0.05 in1.3 mm
07:15 AM 49.8°F9.9°C 47.0°F8.3°C 90% Calm Calm -- 29.84 in1010.5 mb - 0.00 in0.0 mm 0.05 in1.3 mm
07:10 AM 49.7°F9.8°C 46.9°F8.3°C 90% Calm Calm -- 29.84 in1010.5 mb - 0.00 in0.0 mm 0.05 in1.3 mm
07:00 AM 49.6°F9.8°C 46.8°F8.2°C 90% Calm Calm -- 29.84 in1010.5 mb - 0.00 in0.0 mm 0.05 in1.3 mm
06:55 AM 49.6°F9.8°C 46.8°F8.2°C 90% Calm Calm -- 29.84 in1010.5 mb - 0.00 in0.0 mm 0.05 in1.3 mm
06:50 AM 49.6°F9.8°C 46.8°F8.2°C 90% Calm Calm -- 29.83 in1010.2 mb - 0.00 in0.0 mm 0.05 in1.3 mm
06:45 AM 49.6°F9.8°C 46.8°F8.2°C 90% Calm Calm -- 29.84 in1010.5 mb - 0.00 in0.0 mm 0.05 in1.3 mm
06:40 AM 49.6°F9.8°C 46.8°F8.2°C 90% Calm Calm -- 29.84 in1010.5 mb - 0.00 in0.0 mm 0.05 in1.3 mm
06:35 AM 49.6°F9.8°C 46.8°F8.2°C 90% Calm Calm -- 29.84 in1010.5 mb - 0.00 in0.0 mm 0.05 in1.3 mm
06:30 AM 49.5°F9.7°C 46.7°F8.2°C 90% Calm Calm -- 29.84 in1010.5 mb - 0.00 in0.0 mm 0.05 in1.3 mm
06:25 AM 49.6°F9.8°C 46.8°F8.2°C 90% Calm Calm -- 29.84 in1010.5 mb - 0.00 in0.0 mm 0.05 in1.3 mm
06:20 AM 49.5°F9.7°C 46.7°F8.2°C 90% Calm Calm -- 29.84 in1010.5 mb - 0.00 in0.0 mm 0.05 in1.3 mm
06:15 AM 49.6°F9.8°C 46.8°F8.2°C 90% Calm Calm -- 29.84 in1010.5 mb - 0.00 in0.0 mm 0.05 in1.3 mm
06:10 AM 49.6°F9.8°C 46.8°F8.2°C 90% Calm Calm -- 29.84 in1010.5 mb - 0.00 in0.0 mm 0.05 in1.3 mm
06:00 AM 49.7°F9.8°C 46.8°F8.2°C 90% Calm Calm -- 29.84 in1010.5 mb - 0.00 in0.0 mm 0.05 in1.3 mm
05:55 AM 49.7°F9.8°C 46.9°F8.3°C 90% Calm Calm -- 29.84 in1010.5 mb - 0.00 in0.0 mm 0.05 in1.3 mm
05:50 AM 49.7°F9.8°C 46.9°F8.3°C 90% Calm Calm -- 29.84 in1010.5 mb - 0.00 in0.0 mm 0.05 in1.3 mm
05:25 AM 49.7°F9.8°C 46.9°F8.3°C 90% Calm Calm -- 29.85 in1010.8 mb - 0.00 in0.0 mm 0.05 in1.3 mm
05:20 AM 49.7°F9.8°C 46.9°F8.3°C 90% Calm Calm -- 29.85 in1010.8 mb - 0.00 in0.0 mm 0.05 in1.3 mm
05:15 AM 49.7°F9.8°C 46.9°F8.3°C 90% Calm Calm -- 29.85 in1010.8 mb - 0.00 in0.0 mm 0.05 in1.3 mm
05:10 AM 49.7°F9.8°C 46.9°F8.3°C 90% Calm Calm -- 29.85 in1010.8 mb - 0.00 in0.0 mm 0.05 in1.3 mm
05:00 AM 49.8°F9.9°C 47.0°F8.3°C 90% Calm Calm -- 29.85 in1010.8 mb - 0.00 in0.0 mm 0.05 in1.3 mm
04:55 AM 49.8°F9.9°C 47.0°F8.3°C 90% Calm Calm -- 29.85 in1010.8 mb - 0.00 in0.0 mm 0.05 in1.3 mm
04:50 AM 49.8°F9.9°C 47.0°F8.3°C 90% Calm Calm -- 29.85 in1010.8 mb - 0.00 in0.0 mm 0.05 in1.3 mm
04:45 AM 49.8°F9.9°C 47.0°F8.3°C 90% Calm Calm -- 29.85 in1010.8 mb - 0.00 in0.0 mm 0.05 in1.3 mm
04:40 AM 49.8°F9.9°C 47.0°F8.3°C 90% Calm Calm -- 29.85 in1010.8 mb - 0.00 in0.0 mm 0.05 in1.3 mm
04:35 AM 49.9°F9.9°C 47.0°F8.3°C 90% Calm Calm -- 29.86 in1011.2 mb - 0.00 in0.0 mm 0.05 in1.3 mm
04:30 AM 49.9°F9.9°C 47.1°F8.4°C 90% Calm Calm -- 29.86 in1011.2 mb - 0.00 in0.0 mm 0.05 in1.3 mm
04:25 AM 49.9°F9.9°C 47.1°F8.4°C 90% Calm Calm -- 29.86 in1011.2 mb - 0.00 in0.0 mm 0.05 in1.3 mm
04:20 AM 49.9°F9.9°C 47.1°F8.4°C 90% Calm Calm -- 29.86 in1011.2 mb - 0.00 in0.0 mm 0.05 in1.3 mm
04:15 AM 49.9°F9.9°C 47.1°F8.4°C 90% Calm Calm -- 29.86 in1011.2 mb - 0.00 in0.0 mm 0.05 in1.3 mm
04:10 AM 49.9°F9.9°C 47.1°F8.4°C 90% Calm Calm -- 29.86 in1011.2 mb - 0.00 in0.0 mm 0.05 in1.3 mm
04:00 AM 49.9°F9.9°C 47.1°F8.4°C 90% Calm Calm -- 29.86 in1011.2 mb - 0.00 in0.0 mm 0.05 in1.3 mm
03:55 AM 49.9°F9.9°C 47.1°F8.4°C 90% Calm Calm -- 29.86 in1011.2 mb - 0.00 in0.0 mm 0.05 in1.3 mm
03:50 AM 49.9°F9.9°C 47.1°F8.4°C 90% Calm Calm -- 29.86 in1011.2 mb - 0.00 in0.0 mm 0.05 in1.3 mm
03:45 AM 49.9°F9.9°C 47.1°F8.4°C 90% Calm Calm -- 29.86 in1011.2 mb - 0.00 in0.0 mm 0.05 in1.3 mm
03:40 AM 50.0°F10.0°C 47.2°F8.4°C 90% Calm Calm -- 29.86 in1011.2 mb - 0.00 in0.0 mm 0.05 in1.3 mm
03:35 AM 50.0°F10.0°C 47.2°F8.4°C 90% Calm Calm -- 29.86 in1011.2 mb - 0.00 in0.0 mm 0.05 in1.3 mm
03:30 AM 50.0°F10.0°C 47.2°F8.4°C 90% Calm Calm -- 29.86 in1011.2 mb - 0.00 in0.0 mm 0.05 in1.3 mm
03:25 AM 50.0°F10.0°C 47.2°F8.4°C 90% Calm Calm -- 29.86 in1011.2 mb - 0.01 in0.3 mm 0.05 in1.3 mm
03:20 AM 50.0°F10.0°C 47.2°F8.4°C 90% Calm Calm -- 29.86 in1011.2 mb - 0.01 in0.3 mm 0.04 in1.0 mm
03:15 AM 50.0°F10.0°C 47.2°F8.4°C 90% Calm Calm -- 29.87 in1011.5 mb - 0.00 in0.0 mm 0.03 in0.8 mm
03:10 AM 50.1°F10.1°C 47.3°F8.5°C 90% Calm Calm -- 29.87 in1011.5 mb - 0.00 in0.0 mm 0.03 in0.8 mm
03:00 AM 50.1°F10.1°C 47.3°F8.5°C 90% Calm Calm -- 29.87 in1011.5 mb - 0.01 in0.3 mm 0.03 in0.8 mm
02:55 AM 50.1°F10.1°C 47.0°F8.3°C 89% Calm Calm -- 29.87 in1011.5 mb - 0.00 in0.0 mm 0.02 in0.5 mm
02:50 AM 50.1°F10.1°C 47.0°F8.3°C 89% Calm Calm -- 29.87 in1011.5 mb - 0.01 in0.3 mm 0.02 in0.5 mm
02:45 AM 50.1°F10.1°C 47.0°F8.3°C 89% Calm Calm -- 29.87 in1011.5 mb - 0.00 in0.0 mm 0.01 in0.3 mm
02:40 AM 50.1°F10.1°C 47.0°F8.3°C 89% Calm Calm -- 29.88 in1011.9 mb - 0.00 in0.0 mm 0.01 in0.3 mm
02:35 AM 50.1°F10.1°C 47.0°F8.3°C 89% Calm Calm -- 29.88 in1011.9 mb - 0.01 in0.3 mm 0.01 in0.3 mm
02:30 AM 50.1°F10.1°C 47.0°F8.3°C 89% Calm Calm -- 29.88 in1011.9 mb - 0.00 in0.0 mm 0.00 in0.0 mm
02:25 AM 50.1°F10.1°C 47.0°F8.3°C 89% Calm Calm -- 29.88 in1011.9 mb - 0.00 in0.0 mm 0.00 in0.0 mm
02:20 AM 50.2°F10.1°C 47.1°F8.4°C 89% Calm Calm -- 29.88 in1011.9 mb - 0.00 in0.0 mm 0.00 in0.0 mm
02:15 AM 50.2°F10.1°C 47.1°F8.4°C 89% Calm Calm -- 29.88 in1011.9 mb - 0.00 in0.0 mm 0.00 in0.0 mm
02:10 AM 50.2°F10.1°C 47.1°F8.4°C 89% Calm Calm -- 29.88 in1011.9 mb - 0.00 in0.0 mm 0.00 in0.0 mm
02:00 AM 50.3°F10.2°C 47.5°F8.6°C 90% Calm Calm -- 29.89 in1012.2 mb - 0.00 in0.0 mm 0.00 in0.0 mm
01:55 AM 50.2°F10.1°C 47.1°F8.4°C 89% Calm Calm -- 29.89 in1012.2 mb - 0.00 in0.0 mm 0.00 in0.0 mm
01:50 AM 50.3°F10.2°C 47.5°F8.6°C 90% Calm Calm -- 29.89 in1012.2 mb - 0.00 in0.0 mm 0.00 in0.0 mm
01:45 AM 50.3°F10.2°C 47.2°F8.4°C 89% Calm Calm -- 29.89 in1012.2 mb - 0.00 in0.0 mm 0.00 in0.0 mm
01:40 AM 50.3°F10.2°C 47.2°F8.4°C 89% Calm Calm -- 29.89 in1012.2 mb - 0.00 in0.0 mm 0.00 in0.0 mm
01:35 AM 50.4°F10.2°C 47.3°F8.5°C 89% Calm Calm -- 29.90 in1012.5 mb - 0.00 in0.0 mm 0.00 in0.0 mm
01:30 AM 50.4°F10.2°C 47.3°F8.5°C 89% Calm Calm -- 29.90 in1012.5 mb - 0.00 in0.0 mm 0.00 in0.0 mm
01:25 AM 50.4°F10.2°C 47.3°F8.5°C 89% Calm Calm -- 29.90 in1012.5 mb - 0.00 in0.0 mm 0.00 in0.0 mm
01:20 AM 50.4°F10.2°C 47.3°F8.5°C 89% Calm Calm -- 29.90 in1012.5 mb - 0.00 in0.0 mm 0.00 in0.0 mm
01:15 AM 50.4°F10.2°C 47.3°F8.5°C 89% Calm Calm -- 29.90 in1012.5 mb - 0.00 in0.0 mm 0.00 in0.0 mm
01:10 AM 50.4°F10.2°C 47.3°F8.5°C 89% Calm Calm -- 29.90 in1012.5 mb - 0.00 in0.0 mm 0.00 in0.0 mm
01:00 AM 50.5°F10.3°C 47.4°F8.6°C 89% Calm Calm -- 29.91 in1012.9 mb - 0.00 in0.0 mm 0.00 in0.0 mm
12:55 AM 50.5°F10.3°C 47.4°F8.6°C 89% Calm Calm -- 29.91 in1012.9 mb - 0.00 in0.0 mm 0.00 in0.0 mm
12:50 AM 50.5°F10.3°C 47.4°F8.6°C 89% Calm Calm -- 29.91 in1012.9 mb - 0.00 in0.0 mm 0.00 in0.0 mm
12:45 AM 50.5°F10.3°C 47.4°F8.6°C 89% Calm Calm -- 29.91 in1012.9 mb - 0.00 in0.0 mm 0.00 in0.0 mm
12:40 AM 50.5°F10.3°C 47.4°F8.6°C 89% Calm Calm -- 29.91 in1012.9 mb - 0.00 in0.0 mm 0.00 in0.0 mm
12:35 AM 50.5°F10.3°C 47.4°F8.6°C 89% Calm Calm -- 29.91 in1012.9 mb - 0.00 in0.0 mm 0.00 in0.0 mm
12:30 AM 50.6°F10.3°C 47.5°F8.6°C 89% Calm Calm -- 29.91 in1012.9 mb - 0.00 in0.0 mm 0.00 in0.0 mm
12:25 AM 50.6°F10.3°C 47.5°F8.6°C 89% Calm Calm -- 29.91 in1012.9 mb - 0.00 in0.0 mm 0.00 in0.0 mm
12:20 AM 50.6°F10.3°C 47.5°F8.6°C 89% Calm Calm -- 29.91 in1012.9 mb - 0.00 in0.0 mm 0.00 in0.0 mm
12:15 AM 50.6°F10.3°C 47.5°F8.6°C 89% Calm Calm -- 29.92 in1013.2 mb - 0.00 in0.0 mm 0.00 in0.0 mm
12:10 AM 50.6°F10.3°C 47.5°F8.6°C 89% Calm Calm -- 29.92 in1013.2 mb - 0.00 in0.0 mm 0.00 in0.0 mm
12:00 AM 50.6°F10.3°C 47.5°F8.6°C 89% Calm Calm -- 29.92 in1013.2 mb - 0.00 in0.0 mm 0.00 in0.0 mm